sensor_id;sensor_type;location;lat;lon;timestamp;P1;durP1;ratioP1;P2;durP2;ratioP2
66739;SDS011;53653;52.188;8.602;2023-05-07T00:00:02;34.80;;;18.58;;
66739;SDS011;53653;52.188;8.602;2023-05-07T00:02:33;37.95;;;20.13;;
66739;SDS011;53653;52.188;8.602;2023-05-07T00:04:59;40.67;;;19.98;;
66739;SDS011;53653;52.188;8.602;2023-05-07T00:07:25;35.30;;;18.97;;
66739;SDS011;53653;52.188;8.602;2023-05-07T00:09:50;39.60;;;18.97;;
66739;SDS011;53653;52.188;8.602;2023-05-07T00:12:16;35.90;;;19.15;;
66739;SDS011;53653;52.188;8.602;2023-05-07T00:14:41;53.10;;;19.47;;
66739;SDS011;53653;52.188;8.602;2023-05-07T00:17:07;38.00;;;19.53;;
66739;SDS011;53653;52.188;8.602;2023-05-07T00:19:32;36.75;;;20.05;;
66739;SDS011;53653;52.188;8.602;2023-05-07T00:21:58;38.37;;;19.03;;
66739;SDS011;53653;52.188;8.602;2023-05-07T00:24:24;37.10;;;18.25;;
66739;SDS011;53653;52.188;8.602;2023-05-07T00:26:49;37.30;;;19.27;;
66739;SDS011;53653;52.188;8.602;2023-05-07T00:29:15;41.38;;;20.80;;
66739;SDS011;53653;52.188;8.602;2023-05-07T00:31:41;35.28;;;17.95;;
66739;SDS011;53653;52.188;8.602;2023-05-07T00:34:07;36.90;;;20.23;;
66739;SDS011;53653;52.188;8.602;2023-05-07T00:36:33;39.65;;;19.17;;
66739;SDS011;53653;52.188;8.602;2023-05-07T00:38:59;38.07;;;19.37;;
66739;SDS011;53653;52.188;8.602;2023-05-07T00:41:26;37.60;;;19.85;;
66739;SDS011;53653;52.188;8.602;2023-05-07T00:43:51;41.00;;;21.17;;
66739;SDS011;53653;52.188;8.602;2023-05-07T00:46:18;39.20;;;20.35;;
66739;SDS011;53653;52.188;8.602;2023-05-07T00:48:45;34.47;;;16.65;;
66739;SDS011;53653;52.188;8.602;2023-05-07T00:51:12;38.80;;;19.47;;
66739;SDS011;53653;52.188;8.602;2023-05-07T00:53:38;38.22;;;19.83;;
66739;SDS011;53653;52.188;8.602;2023-05-07T00:56:04;38.53;;;19.45;;
66739;SDS011;53653;52.188;8.602;2023-05-07T00:58:32;39.10;;;19.02;;
66739;SDS011;53653;52.188;8.602;2023-05-07T01:00:58;37.00;;;19.95;;
66739;SDS011;53653;52.188;8.602;2023-05-07T01:03:24;36.57;;;19.97;;
66739;SDS011;53653;52.188;8.602;2023-05-07T01:05:51;35.92;;;18.67;;
66739;SDS011;53653;52.188;8.602;2023-05-07T01:08:18;37.97;;;19.20;;
66739;SDS011;53653;52.188;8.602;2023-05-07T01:10:44;36.97;;;19.52;;
66739;SDS011;53653;52.188;8.602;2023-05-07T01:13:11;35.38;;;19.45;;
66739;SDS011;53653;52.188;8.602;2023-05-07T01:15:38;38.03;;;18.97;;
66739;SDS011;53653;52.188;8.602;2023-05-07T01:18:06;35.40;;;17.77;;
66739;SDS011;53653;52.188;8.602;2023-05-07T01:20:34;36.35;;;19.13;;
66739;SDS011;53653;52.188;8.602;2023-05-07T01:23:00;37.13;;;18.75;;
66739;SDS011;53653;52.188;8.602;2023-05-07T01:25:27;34.95;;;18.08;;
66739;SDS011;53653;52.188;8.602;2023-05-07T01:27:57;39.53;;;18.80;;
66739;SDS011;53653;52.188;8.602;2023-05-07T01:30:28;37.08;;;18.50;;
66739;SDS011;53653;52.188;8.602;2023-05-07T01:35:29;36.00;;;18.83;;
66739;SDS011;53653;52.188;8.602;2023-05-07T01:37:58;36.53;;;18.40;;
66739;SDS011;53653;52.188;8.602;2023-05-07T01:40:25;33.93;;;18.10;;
66739;SDS011;53653;52.188;8.602;2023-05-07T01:42:52;37.05;;;18.30;;
66739;SDS011;53653;52.188;8.602;2023-05-07T01:45:19;38.95;;;18.20;;
66739;SDS011;53653;52.188;8.602;2023-05-07T01:47:45;37.35;;;18.45;;
66739;SDS011;53653;52.188;8.602;2023-05-07T01:50:11;35.08;;;18.85;;
66739;SDS011;53653;52.188;8.602;2023-05-07T01:52:37;40.03;;;19.57;;
66739;SDS011;53653;52.188;8.602;2023-05-07T01:55:04;39.65;;;19.75;;
66739;SDS011;53653;52.188;8.602;2023-05-07T01:57:31;38.13;;;19.25;;
66739;SDS011;53653;52.188;8.602;2023-05-07T01:59:56;39.80;;;19.33;;
66739;SDS011;53653;52.188;8.602;2023-05-07T02:02:22;35.42;;;18.30;;
66739;SDS011;53653;52.188;8.602;2023-05-07T02:04:48;37.88;;;19.55;;
66739;SDS011;53653;52.188;8.602;2023-05-07T02:07:15;38.87;;;18.97;;
66739;SDS011;53653;52.188;8.602;2023-05-07T02:09:41;39.92;;;18.65;;
66739;SDS011;53653;52.188;8.602;2023-05-07T02:12:07;41.10;;;20.25;;
66739;SDS011;53653;52.188;8.602;2023-05-07T02:14:33;38.63;;;18.50;;
66739;SDS011;53653;52.188;8.602;2023-05-07T02:16:59;41.10;;;20.67;;
66739;SDS011;53653;52.188;8.602;2023-05-07T02:19:25;39.80;;;20.40;;
66739;SDS011;53653;52.188;8.602;2023-05-07T02:21:50;36.23;;;19.13;;
66739;SDS011;53653;52.188;8.602;2023-05-07T02:24:17;38.60;;;19.13;;
66739;SDS011;53653;52.188;8.602;2023-05-07T02:26:42;39.67;;;19.87;;
66739;SDS011;53653;52.188;8.602;2023-05-07T02:29:08;34.80;;;19.52;;
66739;SDS011;53653;52.188;8.602;2023-05-07T02:31:35;40.35;;;20.65;;
66739;SDS011;53653;52.188;8.602;2023-05-07T02:34:01;37.87;;;19.43;;
66739;SDS011;53653;52.188;8.602;2023-05-07T02:36:27;41.10;;;20.80;;
66739;SDS011;53653;52.188;8.602;2023-05-07T02:38:59;39.58;;;19.10;;
66739;SDS011;53653;52.188;8.602;2023-05-07T02:41:26;40.50;;;19.80;;
66739;SDS011;53653;52.188;8.602;2023-05-07T02:43:53;40.20;;;20.50;;
66739;SDS011;53653;52.188;8.602;2023-05-07T02:46:19;40.53;;;19.55;;
66739;SDS011;53653;52.188;8.602;2023-05-07T02:48:49;42.05;;;20.15;;
66739;SDS011;53653;52.188;8.602;2023-05-07T02:51:17;40.27;;;21.17;;
66739;SDS011;53653;52.188;8.602;2023-05-07T02:53:45;44.65;;;21.52;;
66739;SDS011;53653;52.188;8.602;2023-05-07T02:56:11;39.38;;;20.85;;
66739;SDS011;53653;52.188;8.602;2023-05-07T02:58:36;41.40;;;18.73;;
66739;SDS011;53653;52.188;8.602;2023-05-07T03:01:05;40.03;;;20.80;;
66739;SDS011;53653;52.188;8.602;2023-05-07T03:03:38;41.63;;;20.40;;
66739;SDS011;53653;52.188;8.602;2023-05-07T03:06:05;46.22;;;23.00;;
66739;SDS011;53653;52.188;8.602;2023-05-07T03:08:32;49.05;;;22.20;;
66739;SDS011;53653;52.188;8.602;2023-05-07T03:10:58;45.05;;;21.25;;
66739;SDS011;53653;52.188;8.602;2023-05-07T03:13:24;47.10;;;21.98;;
66739;SDS011;53653;52.188;8.602;2023-05-07T03:15:50;41.97;;;20.63;;
66739;SDS011;53653;52.188;8.602;2023-05-07T03:18:16;48.08;;;24.13;;
66739;SDS011;53653;52.188;8.602;2023-05-07T03:20:42;43.97;;;22.13;;
66739;SDS011;53653;52.188;8.602;2023-05-07T03:23:08;42.88;;;21.83;;
66739;SDS011;53653;52.188;8.602;2023-05-07T03:25:33;47.03;;;22.13;;
66739;SDS011;53653;52.188;8.602;2023-05-07T03:27:59;49.70;;;22.92;;
66739;SDS011;53653;52.188;8.602;2023-05-07T03:30:33;45.08;;;23.15;;
66739;SDS011;53653;52.188;8.602;2023-05-07T03:32:59;45.97;;;21.67;;
66739;SDS011;53653;52.188;8.602;2023-05-07T03:35:25;46.28;;;22.38;;
66739;SDS011;53653;52.188;8.602;2023-05-07T03:37:51;48.65;;;22.88;;
66739;SDS011;53653;52.188;8.602;2023-05-07T03:40:18;49.45;;;22.67;;
66739;SDS011;53653;52.188;8.602;2023-05-07T03:42:47;49.53;;;22.40;;
66739;SDS011;53653;52.188;8.602;2023-05-07T03:45:14;45.38;;;20.92;;
66739;SDS011;53653;52.188;8.602;2023-05-07T03:47:44;45.35;;;21.33;;
66739;SDS011;53653;52.188;8.602;2023-05-07T03:50:15;52.35;;;22.02;;
66739;SDS011;53653;52.188;8.602;2023-05-07T03:52:40;48.13;;;21.17;;
66739;SDS011;53653;52.188;8.602;2023-05-07T03:55:07;48.47;;;22.35;;
66739;SDS011;53653;52.188;8.602;2023-05-07T03:57:35;49.00;;;22.60;;
66739;SDS011;53653;52.188;8.602;2023-05-07T04:00:01;48.43;;;21.33;;
66739;SDS011;53653;52.188;8.602;2023-05-07T04:02:32;48.30;;;22.75;;
66739;SDS011;53653;52.188;8.602;2023-05-07T04:04:58;48.45;;;23.80;;
66739;SDS011;53653;52.188;8.602;2023-05-07T04:07:24;50.13;;;22.47;;
66739;SDS011;53653;52.188;8.602;2023-05-07T04:09:50;46.70;;;21.60;;
66739;SDS011;53653;52.188;8.602;2023-05-07T04:12:15;52.38;;;22.83;;
66739;SDS011;53653;52.188;8.602;2023-05-07T04:14:41;48.53;;;21.93;;
66739;SDS011;53653;52.188;8.602;2023-05-07T04:17:07;56.58;;;24.25;;
66739;SDS011;53653;52.188;8.602;2023-05-07T04:19:37;49.38;;;21.85;;
66739;SDS011;53653;52.188;8.602;2023-05-07T04:22:03;48.07;;;21.87;;
66739;SDS011;53653;52.188;8.602;2023-05-07T04:24:31;51.20;;;22.77;;
66739;SDS011;53653;52.188;8.602;2023-05-07T04:26:57;50.72;;;22.55;;
66739;SDS011;53653;52.188;8.602;2023-05-07T04:29:24;51.03;;;22.47;;
66739;SDS011;53653;52.188;8.602;2023-05-07T04:31:49;53.08;;;22.33;;
66739;SDS011;53653;52.188;8.602;2023-05-07T04:34:15;50.13;;;21.90;;
66739;SDS011;53653;52.188;8.602;2023-05-07T04:36:41;51.80;;;20.97;;
66739;SDS011;53653;52.188;8.602;2023-05-07T04:39:10;52.60;;;22.75;;
66739;SDS011;53653;52.188;8.602;2023-05-07T04:41:37;50.70;;;22.25;;
66739;SDS011;53653;52.188;8.602;2023-05-07T04:44:04;48.83;;;22.85;;
66739;SDS011;53653;52.188;8.602;2023-05-07T04:46:31;51.33;;;22.38;;
66739;SDS011;53653;52.188;8.602;2023-05-07T04:48:57;50.10;;;20.47;;
66739;SDS011;53653;52.188;8.602;2023-05-07T04:51:23;46.38;;;21.08;;
66739;SDS011;53653;52.188;8.602;2023-05-07T04:53:48;46.70;;;21.63;;
66739;SDS011;53653;52.188;8.602;2023-05-07T04:56:14;51.25;;;21.65;;
66739;SDS011;53653;52.188;8.602;2023-05-07T04:58:42;55.22;;;22.98;;
66739;SDS011;53653;52.188;8.602;2023-05-07T05:01:09;48.20;;;22.53;;
66739;SDS011;53653;52.188;8.602;2023-05-07T05:03:36;51.95;;;22.08;;
66739;SDS011;53653;52.188;8.602;2023-05-07T05:06:02;55.15;;;23.33;;
66739;SDS011;53653;52.188;8.602;2023-05-07T05:08:31;52.10;;;21.63;;
66739;SDS011;53653;52.188;8.602;2023-05-07T05:10:58;46.27;;;19.63;;
66739;SDS011;53653;52.188;8.602;2023-05-07T05:13:24;44.05;;;20.45;;
66739;SDS011;53653;52.188;8.602;2023-05-07T05:15:50;47.60;;;20.90;;
66739;SDS011;53653;52.188;8.602;2023-05-07T05:18:16;50.47;;;20.83;;
66739;SDS011;53653;52.188;8.602;2023-05-07T05:20:42;48.17;;;22.00;;
66739;SDS011;53653;52.188;8.602;2023-05-07T05:23:08;46.05;;;19.50;;
66739;SDS011;53653;52.188;8.602;2023-05-07T05:25:33;47.60;;;20.10;;
66739;SDS011;53653;52.188;8.602;2023-05-07T05:28:00;48.78;;;21.48;;
66739;SDS011;53653;52.188;8.602;2023-05-07T05:30:27;48.65;;;20.80;;
66739;SDS011;53653;52.188;8.602;2023-05-07T05:32:52;47.33;;;19.90;;
66739;SDS011;53653;52.188;8.602;2023-05-07T05:35:18;43.90;;;19.40;;
66739;SDS011;53653;52.188;8.602;2023-05-07T05:37:44;46.75;;;21.00;;
66739;SDS011;53653;52.188;8.602;2023-05-07T05:40:10;47.67;;;20.48;;
66739;SDS011;53653;52.188;8.602;2023-05-07T05:42:36;47.70;;;19.87;;
66739;SDS011;53653;52.188;8.602;2023-05-07T05:45:03;42.40;;;18.52;;
66739;SDS011;53653;52.188;8.602;2023-05-07T05:47:30;45.70;;;18.85;;
66739;SDS011;53653;52.188;8.602;2023-05-07T05:49:56;41.92;;;18.65;;
66739;SDS011;53653;52.188;8.602;2023-05-07T05:52:22;43.37;;;17.57;;
66739;SDS011;53653;52.188;8.602;2023-05-07T05:54:51;41.33;;;17.88;;
66739;SDS011;53653;52.188;8.602;2023-05-07T05:57:17;45.60;;;18.58;;
66739;SDS011;53653;52.188;8.602;2023-05-07T05:59:44;41.78;;;19.33;;
66739;SDS011;53653;52.188;8.602;2023-05-07T06:02:10;41.08;;;18.13;;
66739;SDS011;53653;52.188;8.602;2023-05-07T06:04:35;42.77;;;18.13;;
66739;SDS011;53653;52.188;8.602;2023-05-07T06:07:02;38.22;;;18.02;;
66739;SDS011;53653;52.188;8.602;2023-05-07T06:09:28;39.40;;;17.25;;
66739;SDS011;53653;52.188;8.602;2023-05-07T06:11:53;37.23;;;15.60;;
66739;SDS011;53653;52.188;8.602;2023-05-07T06:14:19;40.25;;;18.13;;
66739;SDS011;53653;52.188;8.602;2023-05-07T06:16:45;39.70;;;16.30;;
66739;SDS011;53653;52.188;8.602;2023-05-07T06:19:11;39.37;;;17.40;;
66739;SDS011;53653;52.188;8.602;2023-05-07T06:21:38;35.20;;;16.15;;
66739;SDS011;53653;52.188;8.602;2023-05-07T06:24:04;37.15;;;17.25;;
66739;SDS011;53653;52.188;8.602;2023-05-07T06:26:30;38.67;;;16.23;;
66739;SDS011;53653;52.188;8.602;2023-05-07T06:28:56;35.38;;;16.77;;
66739;SDS011;53653;52.188;8.602;2023-05-07T06:31:22;32.92;;;14.95;;
66739;SDS011;53653;52.188;8.602;2023-05-07T06:33:55;32.35;;;15.20;;
66739;SDS011;53653;52.188;8.602;2023-05-07T06:36:24;37.65;;;16.90;;
66739;SDS011;53653;52.188;8.602;2023-05-07T06:38:54;35.30;;;15.63;;
66739;SDS011;53653;52.188;8.602;2023-05-07T06:41:20;30.88;;;15.07;;
66739;SDS011;53653;52.188;8.602;2023-05-07T06:43:45;34.57;;;16.50;;
66739;SDS011;53653;52.188;8.602;2023-05-07T06:46:24;36.05;;;16.55;;
66739;SDS011;53653;52.188;8.602;2023-05-07T06:48:50;34.90;;;15.60;;
66739;SDS011;53653;52.188;8.602;2023-05-07T06:51:16;34.10;;;15.17;;
66739;SDS011;53653;52.188;8.602;2023-05-07T06:53:42;32.78;;;15.50;;
66739;SDS011;53653;52.188;8.602;2023-05-07T06:56:09;33.38;;;15.45;;
66739;SDS011;53653;52.188;8.602;2023-05-07T06:58:37;30.05;;;14.50;;
66739;SDS011;53653;52.188;8.602;2023-05-07T07:01:03;31.23;;;15.60;;
66739;SDS011;53653;52.188;8.602;2023-05-07T07:03:30;30.38;;;14.52;;
66739;SDS011;53653;52.188;8.602;2023-05-07T07:05:56;35.10;;;15.50;;
66739;SDS011;53653;52.188;8.602;2023-05-07T07:08:22;35.03;;;16.30;;
66739;SDS011;53653;52.188;8.602;2023-05-07T07:10:49;31.73;;;16.38;;
66739;SDS011;53653;52.188;8.602;2023-05-07T07:13:14;32.75;;;15.38;;
66739;SDS011;53653;52.188;8.602;2023-05-07T07:15:40;33.53;;;16.27;;
66739;SDS011;53653;52.188;8.602;2023-05-07T07:18:06;32.33;;;15.73;;
66739;SDS011;53653;52.188;8.602;2023-05-07T07:20:32;33.75;;;16.00;;
66739;SDS011;53653;52.188;8.602;2023-05-07T07:22:58;32.63;;;15.60;;
66739;SDS011;53653;52.188;8.602;2023-05-07T07:25:25;28.40;;;13.93;;
66739;SDS011;53653;52.188;8.602;2023-05-07T07:27:51;30.30;;;14.25;;
66739;SDS011;53653;52.188;8.602;2023-05-07T07:30:16;31.30;;;14.57;;
66739;SDS011;53653;52.188;8.602;2023-05-07T07:32:46;30.20;;;15.00;;
66739;SDS011;53653;52.188;8.602;2023-05-07T07:35:11;29.17;;;14.95;;
66739;SDS011;53653;52.188;8.602;2023-05-07T07:37:38;30.03;;;14.40;;
66739;SDS011;53653;52.188;8.602;2023-05-07T07:40:03;32.30;;;15.70;;
66739;SDS011;53653;52.188;8.602;2023-05-07T07:42:31;33.55;;;15.50;;
66739;SDS011;53653;52.188;8.602;2023-05-07T07:44:57;30.93;;;14.37;;
66739;SDS011;53653;52.188;8.602;2023-05-07T07:47:26;26.33;;;12.95;;
66739;SDS011;53653;52.188;8.602;2023-05-07T07:49:52;29.87;;;14.17;;
66739;SDS011;53653;52.188;8.602;2023-05-07T07:52:18;31.83;;;14.63;;
66739;SDS011;53653;52.188;8.602;2023-05-07T07:54:45;31.25;;;14.25;;
66739;SDS011;53653;52.188;8.602;2023-05-07T07:57:11;30.73;;;15.00;;
66739;SDS011;53653;52.188;8.602;2023-05-07T07:59:36;27.50;;;13.77;;
66739;SDS011;53653;52.188;8.602;2023-05-07T08:02:03;30.38;;;15.05;;
66739;SDS011;53653;52.188;8.602;2023-05-07T08:04:29;28.75;;;14.25;;
66739;SDS011;53653;52.188;8.602;2023-05-07T08:06:59;27.77;;;13.67;;
66739;SDS011;53653;52.188;8.602;2023-05-07T08:09:25;24.60;;;12.43;;
66739;SDS011;53653;52.188;8.602;2023-05-07T08:11:53;26.27;;;13.18;;
66739;SDS011;53653;52.188;8.602;2023-05-07T08:14:18;25.97;;;13.73;;
66739;SDS011;53653;52.188;8.602;2023-05-07T08:16:46;28.83;;;12.93;;
66739;SDS011;53653;52.188;8.602;2023-05-07T08:19:12;26.92;;;12.48;;
66739;SDS011;53653;52.188;8.602;2023-05-07T08:21:39;23.90;;;12.15;;
66739;SDS011;53653;52.188;8.602;2023-05-07T08:24:05;25.80;;;11.67;;
66739;SDS011;53653;52.188;8.602;2023-05-07T08:26:31;23.95;;;12.10;;
66739;SDS011;53653;52.188;8.602;2023-05-07T08:28:57;23.85;;;12.73;;
66739;SDS011;53653;52.188;8.602;2023-05-07T08:31:23;26.05;;;12.35;;
66739;SDS011;53653;52.188;8.602;2023-05-07T08:33:49;22.70;;;10.57;;
66739;SDS011;53653;52.188;8.602;2023-05-07T08:36:15;21.65;;;9.52;;
66739;SDS011;53653;52.188;8.602;2023-05-07T08:38:41;23.05;;;11.18;;
66739;SDS011;53653;52.188;8.602;2023-05-07T08:41:10;20.98;;;11.65;;
66739;SDS011;53653;52.188;8.602;2023-05-07T08:43:37;23.07;;;11.47;;
66739;SDS011;53653;52.188;8.602;2023-05-07T08:46:06;22.38;;;10.27;;
66739;SDS011;53653;52.188;8.602;2023-05-07T08:48:38;24.27;;;10.98;;
66739;SDS011;53653;52.188;8.602;2023-05-07T08:51:11;20.42;;;10.52;;
66739;SDS011;53653;52.188;8.602;2023-05-07T08:53:39;17.63;;;8.38;;
66739;SDS011;53653;52.188;8.602;2023-05-07T08:56:08;17.67;;;8.53;;
66739;SDS011;53653;52.188;8.602;2023-05-07T08:58:34;20.08;;;8.95;;
66739;SDS011;53653;52.188;8.602;2023-05-07T09:01:07;16.88;;;9.10;;
66739;SDS011;53653;52.188;8.602;2023-05-07T09:03:36;16.65;;;8.40;;
66739;SDS011;53653;52.188;8.602;2023-05-07T09:06:03;19.10;;;9.90;;
66739;SDS011;53653;52.188;8.602;2023-05-07T09:08:31;19.27;;;9.50;;
66739;SDS011;53653;52.188;8.602;2023-05-07T09:11:00;19.00;;;9.30;;
66739;SDS011;53653;52.188;8.602;2023-05-07T09:13:27;18.67;;;9.27;;
66739;SDS011;53653;52.188;8.602;2023-05-07T09:15:53;17.50;;;8.77;;
66739;SDS011;53653;52.188;8.602;2023-05-07T09:18:20;16.20;;;8.35;;
66739;SDS011;53653;52.188;8.602;2023-05-07T09:20:47;17.40;;;7.80;;
66739;SDS011;53653;52.188;8.602;2023-05-07T09:23:14;16.95;;;7.97;;
66739;SDS011;53653;52.188;8.602;2023-05-07T09:25:39;16.50;;;8.10;;
66739;SDS011;53653;52.188;8.602;2023-05-07T09:28:12;15.37;;;7.93;;
66739;SDS011;53653;52.188;8.602;2023-05-07T09:30:38;17.48;;;8.13;;
66739;SDS011;53653;52.188;8.602;2023-05-07T09:33:07;13.93;;;7.05;;
66739;SDS011;53653;52.188;8.602;2023-05-07T09:35:37;12.52;;;6.50;;
66739;SDS011;53653;52.188;8.602;2023-05-07T09:38:07;15.52;;;8.05;;
66739;SDS011;53653;52.188;8.602;2023-05-07T09:40:34;16.27;;;7.87;;
66739;SDS011;53653;52.188;8.602;2023-05-07T09:43:12;14.88;;;7.65;;
66739;SDS011;53653;52.188;8.602;2023-05-07T09:45:52;17.15;;;7.65;;
66739;SDS011;53653;52.188;8.602;2023-05-07T09:48:20;14.90;;;7.30;;
66739;SDS011;53653;52.188;8.602;2023-05-07T09:50:49;12.80;;;6.97;;
66739;SDS011;53653;52.188;8.602;2023-05-07T09:53:21;14.70;;;7.20;;
66739;SDS011;53653;52.188;8.602;2023-05-07T09:55:48;14.43;;;6.88;;
66739;SDS011;53653;52.188;8.602;2023-05-07T09:58:15;14.05;;;6.80;;
66739;SDS011;53653;52.188;8.602;2023-05-07T10:00:45;14.25;;;7.50;;
66739;SDS011;53653;52.188;8.602;2023-05-07T10:03:13;15.02;;;7.22;;
66739;SDS011;53653;52.188;8.602;2023-05-07T10:05:58;13.77;;;7.03;;
66739;SDS011;53653;52.188;8.602;2023-05-07T10:08:24;13.90;;;6.22;;
66739;SDS011;53653;52.188;8.602;2023-05-07T10:10:53;15.18;;;7.38;;
66739;SDS011;53653;52.188;8.602;2023-05-07T10:13:23;14.65;;;7.93;;
66739;SDS011;53653;52.188;8.602;2023-05-07T10:15:54;15.55;;;8.15;;
66739;SDS011;53653;52.188;8.602;2023-05-07T10:18:22;19.43;;;8.20;;
66739;SDS011;53653;52.188;8.602;2023-05-07T10:20:51;17.70;;;8.50;;
66739;SDS011;53653;52.188;8.602;2023-05-07T10:23:23;17.48;;;8.18;;
66739;SDS011;53653;52.188;8.602;2023-05-07T10:25:53;15.18;;;7.78;;
66739;SDS011;53653;52.188;8.602;2023-05-07T10:28:22;16.88;;;9.40;;
66739;SDS011;53653;52.188;8.602;2023-05-07T10:31:07;16.80;;;8.70;;
66739;SDS011;53653;52.188;8.602;2023-05-07T10:33:46;17.75;;;8.95;;
66739;SDS011;53653;52.188;8.602;2023-05-07T10:36:15;18.60;;;9.27;;
66739;SDS011;53653;52.188;8.602;2023-05-07T10:38:40;20.27;;;8.77;;
66739;SDS011;53653;52.188;8.602;2023-05-07T10:41:06;19.33;;;9.23;;
66739;SDS011;53653;52.188;8.602;2023-05-07T10:43:40;16.85;;;9.35;;
66739;SDS011;53653;52.188;8.602;2023-05-07T10:49:06;18.17;;;9.23;;
66739;SDS011;53653;52.188;8.602;2023-05-07T10:51:42;16.92;;;7.85;;
66739;SDS011;53653;52.188;8.602;2023-05-07T10:54:19;17.17;;;8.10;;
66739;SDS011;53653;52.188;8.602;2023-05-07T10:56:55;15.32;;;7.93;;
66739;SDS011;53653;52.188;8.602;2023-05-07T11:02:13;15.13;;;7.55;;
66739;SDS011;53653;52.188;8.602;2023-05-07T11:07:54;17.73;;;8.10;;
66739;SDS011;53653;52.188;8.602;2023-05-07T11:10:21;15.43;;;8.05;;
66739;SDS011;53653;52.188;8.602;2023-05-07T11:12:56;27.17;;;15.63;;
66739;SDS011;53653;52.188;8.602;2023-05-07T11:15:35;17.05;;;8.20;;
66739;SDS011;53653;52.188;8.602;2023-05-07T11:18:13;16.98;;;8.45;;
66739;SDS011;53653;52.188;8.602;2023-05-07T11:20:46;15.83;;;8.03;;
66739;SDS011;53653;52.188;8.602;2023-05-07T11:26:24;12.95;;;5.78;;
66739;SDS011;53653;52.188;8.602;2023-05-07T11:28:51;16.10;;;8.70;;
66739;SDS011;53653;52.188;8.602;2023-05-07T11:31:22;15.93;;;8.30;;
66739;SDS011;53653;52.188;8.602;2023-05-07T11:33:51;14.70;;;7.97;;
66739;SDS011;53653;52.188;8.602;2023-05-07T11:36:19;14.32;;;8.18;;
66739;SDS011;53653;52.188;8.602;2023-05-07T11:38:49;16.15;;;8.13;;
66739;SDS011;53653;52.188;8.602;2023-05-07T11:41:15;13.20;;;7.07;;
66739;SDS011;53653;52.188;8.602;2023-05-07T11:43:57;14.55;;;8.05;;
66739;SDS011;53653;52.188;8.602;2023-05-07T11:46:24;15.82;;;7.93;;
66739;SDS011;53653;52.188;8.602;2023-05-07T11:48:51;14.43;;;8.35;;
66739;SDS011;53653;52.188;8.602;2023-05-07T11:51:20;15.33;;;8.77;;
66739;SDS011;53653;52.188;8.602;2023-05-07T11:53:47;14.10;;;7.47;;
66739;SDS011;53653;52.188;8.602;2023-05-07T11:56:14;14.70;;;7.70;;
66739;SDS011;53653;52.188;8.602;2023-05-07T11:58:41;15.55;;;8.00;;
66739;SDS011;53653;52.188;8.602;2023-05-07T12:01:08;15.10;;;7.53;;
66739;SDS011;53653;52.188;8.602;2023-05-07T12:03:35;14.67;;;7.73;;
66739;SDS011;53653;52.188;8.602;2023-05-07T12:06:02;14.10;;;7.82;;
66739;SDS011;53653;52.188;8.602;2023-05-07T12:08:30;13.73;;;6.93;;
66739;SDS011;53653;52.188;8.602;2023-05-07T12:10:56;13.47;;;7.57;;
66739;SDS011;53653;52.188;8.602;2023-05-07T12:13:22;13.50;;;7.67;;
66739;SDS011;53653;52.188;8.602;2023-05-07T12:15:53;14.50;;;6.90;;
66739;SDS011;53653;52.188;8.602;2023-05-07T12:18:20;13.55;;;7.38;;
66739;SDS011;53653;52.188;8.602;2023-05-07T12:20:47;12.10;;;6.67;;
66739;SDS011;53653;52.188;8.602;2023-05-07T12:23:13;14.93;;;7.95;;
66739;SDS011;53653;52.188;8.602;2023-05-07T12:25:39;14.52;;;8.13;;
66739;SDS011;53653;52.188;8.602;2023-05-07T12:28:15;12.60;;;6.95;;
66739;SDS011;53653;52.188;8.602;2023-05-07T12:30:42;16.02;;;8.13;;
66739;SDS011;53653;52.188;8.602;2023-05-07T12:33:09;15.17;;;7.17;;
66739;SDS011;53653;52.188;8.602;2023-05-07T12:35:40;11.30;;;6.07;;
66739;SDS011;53653;52.188;8.602;2023-05-07T12:38:10;14.88;;;7.25;;
66739;SDS011;53653;52.188;8.602;2023-05-07T12:43:06;15.35;;;8.15;;
66739;SDS011;53653;52.188;8.602;2023-05-07T12:45:38;14.33;;;8.27;;
66739;SDS011;53653;52.188;8.602;2023-05-07T12:48:04;15.63;;;8.32;;
66739;SDS011;53653;52.188;8.602;2023-05-07T12:50:31;12.57;;;7.38;;
66739;SDS011;53653;52.188;8.602;2023-05-07T12:52:58;15.88;;;6.93;;
66739;SDS011;53653;52.188;8.602;2023-05-07T12:55:24;15.13;;;7.78;;
66739;SDS011;53653;52.188;8.602;2023-05-07T12:57:50;13.93;;;7.53;;
66739;SDS011;53653;52.188;8.602;2023-05-07T13:00:32;11.52;;;6.82;;
66739;SDS011;53653;52.188;8.602;2023-05-07T13:03:08;14.25;;;7.32;;
66739;SDS011;53653;52.188;8.602;2023-05-07T13:05:35;13.35;;;7.15;;
66739;SDS011;53653;52.188;8.602;2023-05-07T13:08:00;14.27;;;7.97;;
66739;SDS011;53653;52.188;8.602;2023-05-07T13:10:27;13.63;;;7.50;;
66739;SDS011;53653;52.188;8.602;2023-05-07T13:12:53;13.18;;;7.38;;
66739;SDS011;53653;52.188;8.602;2023-05-07T13:15:19;14.38;;;7.63;;
66739;SDS011;53653;52.188;8.602;2023-05-07T13:17:45;13.37;;;7.50;;
66739;SDS011;53653;52.188;8.602;2023-05-07T13:20:10;12.87;;;7.07;;
66739;SDS011;53653;52.188;8.602;2023-05-07T13:22:40;13.03;;;6.70;;
66739;SDS011;53653;52.188;8.602;2023-05-07T13:25:06;13.30;;;7.15;;
66739;SDS011;53653;52.188;8.602;2023-05-07T13:27:32;14.30;;;7.40;;
66739;SDS011;53653;52.188;8.602;2023-05-07T13:30:02;12.33;;;7.17;;
66739;SDS011;53653;52.188;8.602;2023-05-07T13:32:31;15.38;;;7.68;;
66739;SDS011;53653;52.188;8.602;2023-05-07T13:34:57;14.02;;;7.95;;
66739;SDS011;53653;52.188;8.602;2023-05-07T13:37:23;11.83;;;6.50;;
66739;SDS011;53653;52.188;8.602;2023-05-07T13:39:48;16.08;;;7.70;;
66739;SDS011;53653;52.188;8.602;2023-05-07T13:42:14;13.40;;;6.97;;
66739;SDS011;53653;52.188;8.602;2023-05-07T13:44:40;11.68;;;6.20;;
66739;SDS011;53653;52.188;8.602;2023-05-07T13:47:07;13.32;;;7.63;;
66739;SDS011;53653;52.188;8.602;2023-05-07T13:49:33;15.13;;;7.67;;
66739;SDS011;53653;52.188;8.602;2023-05-07T13:51:58;13.63;;;7.53;;
66739;SDS011;53653;52.188;8.602;2023-05-07T13:54:24;13.67;;;8.10;;
66739;SDS011;53653;52.188;8.602;2023-05-07T13:56:50;14.43;;;7.93;;
66739;SDS011;53653;52.188;8.602;2023-05-07T13:59:16;14.45;;;7.80;;
66739;SDS011;53653;52.188;8.602;2023-05-07T14:01:42;15.60;;;9.10;;
66739;SDS011;53653;52.188;8.602;2023-05-07T14:04:07;14.80;;;9.00;;
66739;SDS011;53653;52.188;8.602;2023-05-07T14:06:33;12.77;;;7.90;;
66739;SDS011;53653;52.188;8.602;2023-05-07T14:08:58;14.23;;;8.37;;
66739;SDS011;53653;52.188;8.602;2023-05-07T14:11:25;16.00;;;9.07;;
66739;SDS011;53653;52.188;8.602;2023-05-07T14:13:51;15.52;;;8.23;;
66739;SDS011;53653;52.188;8.602;2023-05-07T14:16:17;17.15;;;8.55;;
66739;SDS011;53653;52.188;8.602;2023-05-07T14:18:43;15.23;;;8.67;;
66739;SDS011;53653;52.188;8.602;2023-05-07T14:21:08;16.23;;;9.10;;
66739;SDS011;53653;52.188;8.602;2023-05-07T14:23:37;15.48;;;8.80;;
66739;SDS011;53653;52.188;8.602;2023-05-07T14:26:03;15.40;;;8.20;;
66739;SDS011;53653;52.188;8.602;2023-05-07T14:28:28;16.27;;;8.43;;
66739;SDS011;53653;52.188;8.602;2023-05-07T14:30:54;15.17;;;8.83;;
66739;SDS011;53653;52.188;8.602;2023-05-07T14:33:20;15.55;;;9.07;;
66739;SDS011;53653;52.188;8.602;2023-05-07T14:35:46;14.27;;;8.63;;
66739;SDS011;53653;52.188;8.602;2023-05-07T14:38:14;13.68;;;7.82;;
66739;SDS011;53653;52.188;8.602;2023-05-07T14:40:40;14.73;;;8.18;;
66739;SDS011;53653;52.188;8.602;2023-05-07T14:43:06;14.45;;;8.48;;